sensor_id;sensor_type;location;lat;lon;timestamp;pressure;altitude;pressure_sealevel;temperature;humidity
55315;BME280;41619;42.816;23.226;2022-08-05T04:36:54;95621.16;;;14.14;70.51
55315;BME280;41619;42.816;23.226;2022-08-05T04:39:19;95627.09;;;14.23;70.17
55315;BME280;41619;42.816;23.226;2022-08-05T04:41:46;95635.81;;;14.32;70.11
55315;BME280;41619;42.816;23.226;2022-08-05T04:44:12;95625.22;;;14.41;69.97
55315;BME280;41619;42.816;23.226;2022-08-05T04:46:37;95624.53;;;14.51;69.95
55315;BME280;41619;42.816;23.226;2022-08-05T04:49:04;95619.84;;;14.63;69.77
55315;BME280;41619;42.816;23.226;2022-08-05T04:51:29;95622.66;;;14.73;69.85
55315;BME280;41619;42.816;23.226;2022-08-05T04:53:56;95627.41;;;14.83;69.76
55315;BME280;41619;42.816;23.226;2022-08-05T04:56:21;95625.50;;;14.95;69.77
55315;BME280;41619;42.816;23.226;2022-08-05T04:58:47;95624.72;;;15.05;69.60
55315;BME280;41619;42.816;23.226;2022-08-05T05:01:12;95608.59;;;15.14;69.62
55315;BME280;41619;42.816;23.226;2022-08-05T05:03:38;95609.78;;;15.24;69.65
55315;BME280;41619;42.816;23.226;2022-08-05T05:06:03;95615.72;;;15.33;69.43
55315;BME280;41619;42.816;23.226;2022-08-05T05:08:29;95611.78;;;15.41;69.45
55315;BME280;41619;42.816;23.226;2022-08-05T05:10:54;95612.59;;;15.52;69.39
55315;BME280;41619;42.816;23.226;2022-08-05T05:13:20;95612.22;;;15.61;69.54
55315;BME280;41619;42.816;23.226;2022-08-05T05:15:46;95605.53;;;15.69;69.55
55315;BME280;41619;42.816;23.226;2022-08-05T05:18:15;95618.13;;;15.77;69.06
55315;BME280;41619;42.816;23.226;2022-08-05T05:20:44;95608.28;;;15.87;68.76
55315;BME280;41619;42.816;23.226;2022-08-05T05:23:10;95609.47;;;15.96;69.13
55315;BME280;41619;42.816;23.226;2022-08-05T05:25:39;95607.09;;;16.05;68.96
55315;BME280;41619;42.816;23.226;2022-08-05T05:28:04;95605.88;;;16.14;68.74
55315;BME280;41619;42.816;23.226;2022-08-05T05:30:30;95607.47;;;16.22;68.70
55315;BME280;41619;42.816;23.226;2022-08-05T05:32:56;95605.84;;;16.31;68.59
55315;BME280;41619;42.816;23.226;2022-08-05T05:35:21;95609.00;;;16.41;68.27
55315;BME280;41619;42.816;23.226;2022-08-05T05:37:52;95598.28;;;16.53;68.02
55315;BME280;41619;42.816;23.226;2022-08-05T05:40:20;95606.94;;;16.66;68.03
55315;BME280;41619;42.816;23.226;2022-08-05T05:42:47;95605.72;;;16.78;67.77
55315;BME280;41619;42.816;23.226;2022-08-05T05:45:13;95606.47;;;16.92;67.76
55315;BME280;41619;42.816;23.226;2022-08-05T05:47:39;95600.47;;;17.05;67.50
55315;BME280;41619;42.816;23.226;2022-08-05T05:50:06;95606.69;;;17.19;67.39
55315;BME280;41619;42.816;23.226;2022-08-05T05:52:32;95605.06;;;17.33;66.89
55315;BME280;41619;42.816;23.226;2022-08-05T05:55:02;95608.91;;;17.46;66.74
55315;BME280;41619;42.816;23.226;2022-08-05T05:57:28;95602.84;;;17.62;66.38
55315;BME280;41619;42.816;23.226;2022-08-05T05:59:53;95609.06;;;17.80;66.07
55315;BME280;41619;42.816;23.226;2022-08-05T06:02:19;95605.03;;;17.92;65.96
55315;BME280;41619;42.816;23.226;2022-08-05T06:04:44;95602.53;;;18.04;65.61
55315;BME280;41619;42.816;23.226;2022-08-05T06:07:09;95609.13;;;18.17;65.36
55315;BME280;41619;42.816;23.226;2022-08-05T06:09:35;95602.66;;;18.31;64.97
55315;BME280;41619;42.816;23.226;2022-08-05T06:12:00;95614.38;;;18.46;64.31
55315;BME280;41619;42.816;23.226;2022-08-05T06:14:26;95610.69;;;18.60;63.58
55315;BME280;41619;42.816;23.226;2022-08-05T06:16:51;95607.75;;;18.74;63.47
55315;BME280;41619;42.816;23.226;2022-08-05T06:19:17;95614.34;;;18.87;62.77
55315;BME280;41619;42.816;23.226;2022-08-05T06:21:42;95603.91;;;18.98;62.51
55315;BME280;41619;42.816;23.226;2022-08-05T06:24:09;95612.06;;;19.09;62.06
55315;BME280;41619;42.816;23.226;2022-08-05T06:26:35;95612.31;;;19.22;61.93
55315;BME280;41619;42.816;23.226;2022-08-05T06:29:00;95605.38;;;19.33;61.54
55315;BME280;41619;42.816;23.226;2022-08-05T06:31:26;95600.84;;;19.47;61.40
55315;BME280;41619;42.816;23.226;2022-08-05T06:33:51;95606.22;;;19.61;61.27
55315;BME280;41619;42.816;23.226;2022-08-05T06:36:16;95601.66;;;19.74;61.35
55315;BME280;41619;42.816;23.226;2022-08-05T06:38:42;95607.34;;;19.90;60.74
55315;BME280;41619;42.816;23.226;2022-08-05T06:41:08;95605.09;;;20.05;60.29
55315;BME280;41619;42.816;23.226;2022-08-05T06:43:34;95593.81;;;20.16;60.17
55315;BME280;41619;42.816;23.226;2022-08-05T06:46:00;95594.41;;;20.27;60.04
55315;BME280;41619;42.816;23.226;2022-08-05T06:48:25;95598.13;;;20.40;59.81
55315;BME280;41619;42.816;23.226;2022-08-05T06:50:50;95595.03;;;20.58;59.47
55315;BME280;41619;42.816;23.226;2022-08-05T06:53:16;95598.66;;;20.75;58.67
55315;BME280;41619;42.816;23.226;2022-08-05T06:55:41;95596.75;;;20.92;57.98
55315;BME280;41619;42.816;23.226;2022-08-05T06:58:07;95590.47;;;21.07;57.80
55315;BME280;41619;42.816;23.226;2022-08-05T07:00:32;95588.53;;;21.24;57.34
55315;BME280;41619;42.816;23.226;2022-08-05T07:02:58;95583.78;;;21.41;56.40
55315;BME280;41619;42.816;23.226;2022-08-05T07:05:24;95583.09;;;21.53;56.13
55315;BME280;41619;42.816;23.226;2022-08-05T07:07:50;95585.03;;;21.72;55.95
55315;BME280;41619;42.816;23.226;2022-08-05T07:10:16;95581.81;;;21.90;55.68
55315;BME280;41619;42.816;23.226;2022-08-05T07:12:41;95588.97;;;22.08;55.51
55315;BME280;41619;42.816;23.226;2022-08-05T07:15:26;95587.38;;;22.23;55.00
55315;BME280;41619;42.816;23.226;2022-08-05T07:18:10;95594.50;;;22.40;54.49
55315;BME280;41619;42.816;23.226;2022-08-05T07:20:35;95592.22;;;22.51;53.96
55315;BME280;41619;42.816;23.226;2022-08-05T07:23:00;95589.03;;;22.65;53.83
55315;BME280;41619;42.816;23.226;2022-08-05T07:25:26;95590.63;;;22.79;53.61
55315;BME280;41619;42.816;23.226;2022-08-05T07:27:53;95591.25;;;22.87;52.68
55315;BME280;41619;42.816;23.226;2022-08-05T07:30:18;95588.59;;;22.96;52.64
55315;BME280;41619;42.816;23.226;2022-08-05T07:32:44;95597.78;;;23.09;52.80
55315;BME280;41619;42.816;23.226;2022-08-05T07:35:11;95586.97;;;23.24;52.38
55315;BME280;41619;42.816;23.226;2022-08-05T07:37:37;95589.78;;;23.37;51.64
55315;BME280;41619;42.816;23.226;2022-08-05T07:40:04;95578.63;;;23.49;51.35
55315;BME280;41619;42.816;23.226;2022-08-05T07:42:30;95586.94;;;23.66;51.38
55315;BME280;41619;42.816;23.226;2022-08-05T07:44:56;95581.69;;;23.80;50.91
55315;BME280;41619;42.816;23.226;2022-08-05T07:47:21;95581.19;;;23.95;50.19
55315;BME280;41619;42.816;23.226;2022-08-05T07:49:47;95592.69;;;24.09;49.55
55315;BME280;41619;42.816;23.226;2022-08-05T07:52:12;95578.69;;;24.22;49.28
55315;BME280;41619;42.816;23.226;2022-08-05T07:54:38;95582.94;;;24.39;48.93
55315;BME280;41619;42.816;23.226;2022-08-05T07:57:03;95570.78;;;24.55;49.06
55315;BME280;41619;42.816;23.226;2022-08-05T07:59:29;95570.94;;;24.73;48.13
55315;BME280;41619;42.816;23.226;2022-08-05T08:01:54;95572.28;;;24.91;47.55
55315;BME280;41619;42.816;23.226;2022-08-05T08:04:19;95568.53;;;25.06;47.47
55315;BME280;41619;42.816;23.226;2022-08-05T08:06:45;95569.09;;;25.23;46.81
55315;BME280;41619;42.816;23.226;2022-08-05T08:09:10;95571.50;;;25.34;46.26
55315;BME280;41619;42.816;23.226;2022-08-05T08:11:36;95568.16;;;25.48;46.04
55315;BME280;41619;42.816;23.226;2022-08-05T08:14:02;95571.03;;;25.66;46.20
55315;BME280;41619;42.816;23.226;2022-08-05T08:16:27;95569.41;;;25.87;45.64
55315;BME280;41619;42.816;23.226;2022-08-05T08:18:53;95573.69;;;26.10;44.85
55315;BME280;41619;42.816;23.226;2022-08-05T08:21:18;95576.53;;;26.29;44.62
55315;BME280;41619;42.816;23.226;2022-08-05T08:23:44;95567.22;;;26.50;44.29
55315;BME280;41619;42.816;23.226;2022-08-05T08:26:09;95567.66;;;26.76;43.87
55315;BME280;41619;42.816;23.226;2022-08-05T08:28:34;95565.97;;;26.97;43.75
55315;BME280;41619;42.816;23.226;2022-08-05T08:31:00;95566.25;;;27.17;43.57
55315;BME280;41619;42.816;23.226;2022-08-05T08:33:25;95561.06;;;27.34;42.19
55315;BME280;41619;42.816;23.226;2022-08-05T08:35:51;95561.63;;;27.47;41.85
55315;BME280;41619;42.816;23.226;2022-08-05T08:38:17;95560.81;;;27.65;41.35
55315;BME280;41619;42.816;23.226;2022-08-05T08:40:44;95561.22;;;27.82;41.31
55315;BME280;41619;42.816;23.226;2022-08-05T08:43:11;95554.34;;;28.06;40.91
55315;BME280;41619;42.816;23.226;2022-08-05T08:45:39;95549.78;;;28.42;40.70
55315;BME280;41619;42.816;23.226;2022-08-05T08:48:05;95555.09;;;28.64;40.01
55315;BME280;41619;42.816;23.226;2022-08-05T08:50:31;95551.44;;;28.73;39.47
55315;BME280;41619;42.816;23.226;2022-08-05T08:53:04;95543.84;;;28.79;38.97
55315;BME280;41619;42.816;23.226;2022-08-05T08:55:31;95556.94;;;28.91;39.23
55315;BME280;41619;42.816;23.226;2022-08-05T08:57:59;95543.94;;;29.08;39.24
55315;BME280;41619;42.816;23.226;2022-08-05T09:00:25;95543.63;;;29.36;39.38
55315;BME280;41619;42.816;23.226;2022-08-05T09:02:51;95535.88;;;29.60;38.58
55315;BME280;41619;42.816;23.226;2022-08-05T09:05:17;95531.66;;;29.70;37.91
55315;BME280;41619;42.816;23.226;2022-08-05T09:07:43;95517.72;;;29.81;38.13
55315;BME280;41619;42.816;23.226;2022-08-05T09:10:09;95526.84;;;29.91;38.09
55315;BME280;41619;42.816;23.226;2022-08-05T09:12:34;95517.59;;;30.05;37.93
55315;BME280;41619;42.816;23.226;2022-08-05T09:15:04;95513.16;;;30.19;38.00
55315;BME280;41619;42.816;23.226;2022-08-05T09:17:30;95510.88;;;30.43;37.54
55315;BME280;41619;42.816;23.226;2022-08-05T09:19:57;95508.00;;;30.58;37.40
55315;BME280;41619;42.816;23.226;2022-08-05T09:22:23;95504.34;;;30.72;36.67
55315;BME280;41619;42.816;23.226;2022-08-05T09:25:02;95505.34;;;30.95;36.31
55315;BME280;41619;42.816;23.226;2022-08-05T09:27:33;95497.25;;;31.09;35.93
55315;BME280;41619;42.816;23.226;2022-08-05T09:29:59;95488.03;;;31.14;35.52
55315;BME280;41619;42.816;23.226;2022-08-05T09:32:36;95487.84;;;31.17;34.90
55315;BME280;41619;42.816;23.226;2022-08-05T09:35:13;95490.22;;;31.24;34.43
55315;BME280;41619;42.816;23.226;2022-08-05T09:37:55;95483.00;;;31.23;34.13
55315;BME280;41619;42.816;23.226;2022-08-05T09:40:39;95480.47;;;31.25;33.75
55315;BME280;41619;42.816;23.226;2022-08-05T09:43:05;95478.50;;;31.37;33.96
55315;BME280;41619;42.816;23.226;2022-08-05T09:45:41;95475.28;;;31.55;32.63
55315;BME280;41619;42.816;23.226;2022-08-05T09:48:23;95471.69;;;31.55;32.28
55315;BME280;41619;42.816;23.226;2022-08-05T09:50:57;95474.00;;;31.56;32.21
55315;BME280;41619;42.816;23.226;2022-08-05T09:53:23;95472.00;;;31.62;32.38
55315;BME280;41619;42.816;23.226;2022-08-05T09:55:54;95472.59;;;31.72;32.45
55315;BME280;41619;42.816;23.226;2022-08-05T09:58:20;95464.72;;;31.87;32.33
55315;BME280;41619;42.816;23.226;2022-08-05T10:01:03;95456.78;;;31.97;31.64
55315;BME280;41619;42.816;23.226;2022-08-05T10:03:29;95460.97;;;32.07;31.32
55315;BME280;41619;42.816;23.226;2022-08-05T10:06:03;95451.91;;;31.98;30.63
55315;BME280;41619;42.816;23.226;2022-08-05T10:08:29;95441.88;;;31.97;31.02
55315;BME280;41619;42.816;23.226;2022-08-05T10:10:55;95454.47;;;31.96;30.61
55315;BME280;41619;42.816;23.226;2022-08-05T10:13:35;95445.72;;;31.93;30.46
55315;BME280;41619;42.816;23.226;2022-08-05T10:16:05;95444.00;;;32.07;29.80
55315;BME280;41619;42.816;23.226;2022-08-05T10:18:32;95443.47;;;32.03;30.00
55315;BME280;41619;42.816;23.226;2022-08-05T10:21:01;95442.13;;;31.93;30.62
55315;BME280;41619;42.816;23.226;2022-08-05T10:23:33;95442.38;;;31.95;30.15
55315;BME280;41619;42.816;23.226;2022-08-05T10:26:01;95442.38;;;31.95;29.75
55315;BME280;41619;42.816;23.226;2022-08-05T10:28:28;95439.91;;;31.71;29.43
55315;BME280;41619;42.816;23.226;2022-08-05T10:30:55;95435.44;;;31.59;29.76
55315;BME280;41619;42.816;23.226;2022-08-05T10:33:23;95440.34;;;31.58;29.54
55315;BME280;41619;42.816;23.226;2022-08-05T10:35:50;95435.00;;;31.66;29.89
55315;BME280;41619;42.816;23.226;2022-08-05T10:38:18;95434.16;;;31.60;29.93
55315;BME280;41619;42.816;23.226;2022-08-05T10:46:07;95435.94;;;31.20;30.76
55315;BME280;41619;42.816;23.226;2022-08-05T10:48:39;95432.50;;;31.11;30.63
55315;BME280;41619;42.816;23.226;2022-08-05T10:51:10;95430.72;;;31.13;30.32
55315;BME280;41619;42.816;23.226;2022-08-05T10:56:16;95430.31;;;30.94;31.46
55315;BME280;41619;42.816;23.226;2022-08-05T11:01:17;95423.69;;;31.29;31.11
55315;BME280;41619;42.816;23.226;2022-08-05T11:06:29;95407.75;;;31.69;31.33
55315;BME280;41619;42.816;23.226;2022-08-05T11:09:20;95418.16;;;31.83;31.29
55315;BME280;41619;42.816;23.226;2022-08-05T11:11:50;95407.13;;;31.90;31.36
55315;BME280;41619;42.816;23.226;2022-08-05T11:14:25;95412.59;;;32.05;30.89
55315;BME280;41619;42.816;23.226;2022-08-05T11:19:52;95411.25;;;31.95;29.61
55315;BME280;41619;42.816;23.226;2022-08-05T11:22:38;95412.25;;;31.86;30.32
55315;BME280;41619;42.816;23.226;2022-08-05T11:25:33;95410.38;;;31.78;29.06
55315;BME280;41619;42.816;23.226;2022-08-05T11:33:37;95407.28;;;31.39;30.04
55315;BME280;41619;42.816;23.226;2022-08-05T11:36:05;95403.16;;;31.34;31.12
55315;BME280;41619;42.816;23.226;2022-08-05T11:41:15;95400.66;;;31.10;31.25
55315;BME280;41619;42.816;23.226;2022-08-05T11:44:00;95394.75;;;31.14;31.41
55315;BME280;41619;42.816;23.226;2022-08-05T11:46:39;95392.41;;;31.07;31.86
55315;BME280;41619;42.816;23.226;2022-08-05T11:49:07;95395.59;;;30.88;32.51
55315;BME280;41619;42.816;23.226;2022-08-05T11:51:35;95393.38;;;30.72;32.73
55315;BME280;41619;42.816;23.226;2022-08-05T11:54:01;95393.75;;;30.59;33.21
55315;BME280;41619;42.816;23.226;2022-08-05T11:56:46;95394.69;;;30.51;33.18
55315;BME280;41619;42.816;23.226;2022-08-05T11:59:20;95394.34;;;30.43;33.50
55315;BME280;41619;42.816;23.226;2022-08-05T12:02:01;95391.75;;;30.39;33.85
55315;BME280;41619;42.816;23.226;2022-08-05T12:04:41;95388.94;;;30.39;34.33
55315;BME280;41619;42.816;23.226;2022-08-05T12:07:08;95388.66;;;30.37;33.70
55315;BME280;41619;42.816;23.226;2022-08-05T12:09:40;95384.44;;;30.27;33.70
55315;BME280;41619;42.816;23.226;2022-08-05T12:12:07;95389.03;;;30.25;33.91
55315;BME280;41619;42.816;23.226;2022-08-05T12:14:41;95380.41;;;30.34;33.71
55315;BME280;41619;42.816;23.226;2022-08-05T12:17:12;95378.53;;;30.51;33.50
55315;BME280;41619;42.816;23.226;2022-08-05T12:22:07;95385.97;;;31.06;32.01
55315;BME280;41619;42.816;23.226;2022-08-05T12:24:33;95377.28;;;31.15;32.02
55315;BME280;41619;42.816;23.226;2022-08-05T12:27:00;95374.63;;;31.38;31.38
55315;BME280;41619;42.816;23.226;2022-08-05T12:29:26;95368.06;;;31.57;30.96
55315;BME280;41619;42.816;23.226;2022-08-05T12:31:56;95363.53;;;31.71;30.31
55315;BME280;41619;42.816;23.226;2022-08-05T12:34:26;95369.56;;;31.90;29.79
55315;BME280;41619;42.816;23.226;2022-08-05T12:37:03;95370.63;;;32.04;29.09
55315;BME280;41619;42.816;23.226;2022-08-05T12:39:35;95362.41;;;32.06;29.25
55315;BME280;41619;42.816;23.226;2022-08-05T12:42:01;95352.09;;;32.03;29.17
55315;BME280;41619;42.816;23.226;2022-08-05T12:44:26;95360.63;;;32.08;28.60
55315;BME280;41619;42.816;23.226;2022-08-05T12:46:54;95358.03;;;32.05;29.46
55315;BME280;41619;42.816;23.226;2022-08-05T12:49:20;95350.25;;;31.94;28.84
55315;BME280;41619;42.816;23.226;2022-08-05T12:51:51;95338.16;;;31.82;28.42
55315;BME280;41619;42.816;23.226;2022-08-05T12:54:25;95347.66;;;31.85;29.01
55315;BME280;41619;42.816;23.226;2022-08-05T12:56:57;95335.59;;;31.90;29.18
55315;BME280;41619;42.816;23.226;2022-08-05T12:59:27;95330.44;;;31.94;28.41
55315;BME280;41619;42.816;23.226;2022-08-05T13:02:06;95339.25;;;32.07;27.53
55315;BME280;41619;42.816;23.226;2022-08-05T13:04:34;95333.34;;;32.16;27.63
55315;BME280;41619;42.816;23.226;2022-08-05T13:07:02;95337.78;;;32.29;27.85
55315;BME280;41619;42.816;23.226;2022-08-05T13:09:29;95334.72;;;32.38;27.73
55315;BME280;41619;42.816;23.226;2022-08-05T13:12:04;95322.88;;;32.39;27.47
55315;BME280;41619;42.816;23.226;2022-08-05T13:14:43;95325.94;;;32.30;27.86
55315;BME280;41619;42.816;23.226;2022-08-05T13:17:22;95327.97;;;32.18;27.90
55315;BME280;41619;42.816;23.226;2022-08-05T13:22:30;95323.69;;;31.75;28.32
55315;BME280;41619;42.816;23.226;2022-08-05T13:24:57;95320.22;;;31.54;28.66
55315;BME280;41619;42.816;23.226;2022-08-05T13:27:28;95321.66;;;31.32;29.47
55315;BME280;41619;42.816;23.226;2022-08-05T13:29:54;95309.69;;;31.12;29.79
55315;BME280;41619;42.816;23.226;2022-08-05T13:32:20;95317.75;;;30.87;29.87
55315;BME280;41619;42.816;23.226;2022-08-05T13:34:46;95321.16;;;30.65;30.39
55315;BME280;41619;42.816;23.226;2022-08-05T13:37:12;95315.31;;;30.49;29.63
55315;BME280;41619;42.816;23.226;2022-08-05T13:39:38;95312.16;;;30.35;30.05
55315;BME280;41619;42.816;23.226;2022-08-05T13:42:03;95304.34;;;30.25;30.97
55315;BME280;41619;42.816;23.226;2022-08-05T13:44:29;95304.53;;;30.16;31.53
55315;BME280;41619;42.816;23.226;2022-08-05T13:46:54;95299.69;;;30.22;30.63
55315;BME280;41619;42.816;23.226;2022-08-05T13:49:19;95301.56;;;30.30;30.25
55315;BME280;41619;42.816;23.226;2022-08-05T13:51:45;95302.19;;;30.40;29.39
55315;BME280;41619;42.816;23.226;2022-08-05T13:54:10;95301.22;;;30.49;29.34
55315;BME280;41619;42.816;23.226;2022-08-05T13:56:36;95304.59;;;30.53;29.65
55315;BME280;41619;42.816;23.226;2022-08-05T13:59:01;95290.91;;;30.45;29.36
55315;BME280;41619;42.816;23.226;2022-08-05T14:01:27;95296.84;;;30.48;29.95
55315;BME280;41619;42.816;23.226;2022-08-05T14:03:52;95301.22;;;30.49;30.06
55315;BME280;41619;42.816;23.226;2022-08-05T14:06:36;95293.47;;;30.43;29.72
55315;BME280;41619;42.816;23.226;2022-08-05T14:09:02;95286.25;;;30.37;30.09
55315;BME280;41619;42.816;23.226;2022-08-05T14:11:28;95292.66;;;30.37;29.66
55315;BME280;41619;42.816;23.226;2022-08-05T14:13:53;95288.06;;;30.40;29.58
55315;BME280;41619;42.816;23.226;2022-08-05T14:16:19;95281.13;;;30.41;30.05
55315;BME280;41619;42.816;23.226;2022-08-05T14:18:45;95285.75;;;30.38;30.53
55315;BME280;41619;42.816;23.226;2022-08-05T14:21:10;95283.19;;;30.40;30.56
55315;BME280;41619;42.816;23.226;2022-08-05T14:23:36;95282.41;;;30.40;30.96
55315;BME280;41619;42.816;23.226;2022-08-05T14:26:01;95280.81;;;30.33;31.23
55315;BME280;41619;42.816;23.226;2022-08-05T14:28:27;95279.97;;;30.27;31.11
55315;BME280;41619;42.816;23.226;2022-08-05T14:30:54;95282.97;;;30.18;31.64
55315;BME280;41619;42.816;23.226;2022-08-05T14:33:19;95270.81;;;30.06;31.68
55315;BME280;41619;42.816;23.226;2022-08-05T14:35:44;95284.84;;;30.01;31.96
55315;BME280;41619;42.816;23.226;2022-08-05T14:38:10;95271.94;;;29.94;31.54
55315;BME280;41619;42.816;23.226;2022-08-05T14:40:35;95272.66;;;29.89;32.18
55315;BME280;41619;42.816;23.226;2022-08-05T14:43:01;95267.69;;;29.78;32.45
55315;BME280;41619;42.816;23.226;2022-08-05T14:45:26;95265.50;;;29.68;32.56
55315;BME280;41619;42.816;23.226;2022-08-05T14:47:51;95265.66;;;29.59;32.66
55315;BME280;41619;42.816;23.226;2022-08-05T14:50:17;95261.22;;;29.52;33.37
55315;BME280;41619;42.816;23.226;2022-08-05T14:52:42;95259.09;;;29.47;33.27
55315;BME280;41619;42.816;23.226;2022-08-05T14:55:08;95255.97;;;29.45;33.85
55315;BME280;41619;42.816;23.226;2022-08-05T14:57:33;95261.34;;;29.43;33.94
55315;BME280;41619;42.816;23.226;2022-08-05T14:59:59;95253.09;;;29.39;33.53
55315;BME280;41619;42.816;23.226;2022-08-05T15:02:24;95246.59;;;29.33;33.21
55315;BME280;41619;42.816;23.226;2022-08-05T15:04:49;95245.13;;;29.17;33.78
55315;BME280;41619;42.816;23.226;2022-08-05T15:07:15;95249.63;;;29.09;34.28
55315;BME280;41619;42.816;23.226;2022-08-05T15:09:41;95243.50;;;29.11;34.80
55315;BME280;41619;42.816;23.226;2022-08-05T15:12:06;95242.00;;;29.15;34.41
55315;BME280;41619;42.816;23.226;2022-08-05T15:14:32;95248.78;;;29.23;33.82
55315;BME280;41619;42.816;23.226;2022-08-05T15:16:57;95248.66;;;29.33;33.39
55315;BME280;41619;42.816;23.226;2022-08-05T15:19:23;95249.50;;;29.39;33.54
55315;BME280;41619;42.816;23.226;2022-08-05T15:21:48;95247.06;;;29.46;32.84
55315;BME280;41619;42.816;23.226;2022-08-05T15:24:14;95241.97;;;29.50;31.92
55315;BME280;41619;42.816;23.226;2022-08-05T15:26:39;95243.38;;;29.61;31.97
55315;BME280;41619;42.816;23.226;2022-08-05T15:29:04;95239.34;;;29.67;31.49
55315;BME280;41619;42.816;23.226;2022-08-05T15:31:30;95245.81;;;29.73;31.05
55315;BME280;41619;42.816;23.226;2022-08-05T15:33:55;95241.72;;;29.74;31.02
55315;BME280;41619;42.816;23.226;2022-08-05T15:36:20;95238.13;;;29.74;30.98
55315;BME280;41619;42.816;23.226;2022-08-05T15:38:46;95233.25;;;29.74;30.89
55315;BME280;41619;42.816;23.226;2022-08-05T15:41:12;95229.47;;;29.77;30.61
55315;BME280;41619;42.816;23.226;2022-08-05T15:43:37;95236.44;;;29.82;30.08
55315;BME280;41619;42.816;23.226;2022-08-05T15:46:03;95233.38;;;29.85;30.12
55315;BME280;41619;42.816;23.226;2022-08-05T15:48:28;95229.28;;;29.87;30.45
55315;BME280;41619;42.816;23.226;2022-08-05T15:50:54;95230.84;;;29.88;30.13
55315;BME280;41619;42.816;23.226;2022-08-05T15:53:19;95233.66;;;29.88;30.64
55315;BME280;41619;42.816;23.226;2022-08-05T15:55:45;95226.69;;;29.83;30.24
55315;BME280;41619;42.816;23.226;2022-08-05T15:58:10;95228.25;;;29.84;30.03
55315;BME280;41619;42.816;23.226;2022-08-05T16:00:36;95230.78;;;29.82;29.85
55315;BME280;41619;42.816;23.226;2022-08-05T16:03:01;95227.13;;;29.76;30.08
55315;BME280;41619;42.816;23.226;2022-08-05T16:05:27;95228.84;;;29.68;30.82
55315;BME280;41619;42.816;23.226;2022-08-05T16:07:52;95227.94;;;29.56;30.79
55315;BME280;41619;42.816;23.226;2022-08-05T16:10:18;95223.50;;;29.49;30.48
55315;BME280;41619;42.816;23.226;2022-08-05T16:12:44;95228.69;;;29.36;31.01
55315;BME280;41619;42.816;23.226;2022-08-05T16:15:10;95235.25;;;29.28;30.91
55315;BME280;41619;42.816;23.226;2022-08-05T16:17:35;95229.84;;;29.24;31.01
55315;BME280;41619;42.816;23.226;2022-08-05T16:20:00;95235.09;;;29.16;30.98
55315;BME280;41619;42.816;23.226;2022-08-05T16:22:26;95234.00;;;29.08;31.00
55315;BME280;41619;42.816;23.226;2022-08-05T16:24:51;95230.81;;;29.01;31.29
55315;BME280;41619;42.816;23.226;2022-08-05T16:27:16;95237.63;;;28.94;31.10
55315;BME280;41619;42.816;23.226;2022-08-05T16:29:42;95228.84;;;28.86;31.41
55315;BME280;41619;42.816;23.226;2022-08-05T16:32:08;95229.41;;;28.76;31.81
55315;BME280;41619;42.816;23.226;2022-08-05T16:34:33;95231.09;;;28.68;31.82
55315;BME280;41619;42.816;23.226;2022-08-05T16:36:59;95235.28;;;28.57;32.48
55315;BME280;41619;42.816;23.226;2022-08-05T16:39:24;95237.94;;;28.46;32.81
55315;BME280;41619;42.816;23.226;2022-08-05T16:41:49;95228.06;;;28.36;32.93
55315;BME280;41619;42.816;23.226;2022-08-05T16:44:16;95230.97;;;28.27;33.16
55315;BME280;41619;42.816;23.226;2022-08-05T16:46:42;95233.09;;;28.17;33.28
55315;BME280;41619;42.816;23.226;2022-08-05T16:49:09;95237.25;;;28.07;33.02
55315;BME280;41619;42.816;23.226;2022-08-05T16:51:37;95240.16;;;27.98;33.63
55315;BME280;41619;42.816;23.226;2022-08-05T16:54:02;95233.56;;;27.86;33.72
55315;BME280;41619;42.816;23.226;2022-08-05T16:56:29;95241.03;;;27.74;34.65
55315;BME280;41619;42.816;23.226;2022-08-05T16:58:55;95247.50;;;27.66;34.72
55315;BME280;41619;42.816;23.226;2022-08-05T17:01:21;95249.78;;;27.53;35.19
55315;BME280;41619;42.816;23.226;2022-08-05T17:03:46;95243.47;;;27.43;35.19
55315;BME280;41619;42.816;23.226;2022-08-05T17:06:12;95248.41;;;27.33;35.26
55315;BME280;41619;42.816;23.226;2022-08-05T17:08:37;95245.63;;;27.24;35.60
55315;BME280;41619;42.816;23.226;2022-08-05T17:11:06;95252.13;;;27.15;35.54
55315;BME280;41619;42.816;23.226;2022-08-05T17:13:32;95245.75;;;27.06;35.93
55315;BME280;41619;42.816;23.226;2022-08-05T17:15:57;95255.94;;;26.94;36.42
55315;BME280;41619;42.816;23.226;2022-08-05T17:18:23;95254.16;;;26.82;36.98
55315;BME280;41619;42.816;23.226;2022-08-05T17:20:49;95253.41;;;26.72;37.16
55315;BME280;41619;42.816;23.226;2022-08-05T17:23:14;95253.19;;;26.61;37.24
55315;BME280;41619;42.816;23.226;2022-08-05T17:25:40;95257.75;;;26.49;37.72
55315;BME280;41619;42.816;23.226;2022-08-05T17:28:05;95258.25;;;26.39;37.70
55315;BME280;41619;42.816;23.226;2022-08-05T17:30:30;95260.75;;;26.27;38.25
55315;BME280;41619;42.816;23.226;2022-08-05T17:32:56;95268.13;;;26.16;38.21
55315;BME280;41619;42.816;23.226;2022-08-05T17:35:21;95270.19;;;26.06;38.39
55315;BME280;41619;42.816;23.226;2022-08-05T17:37:48;95263.81;;;25.96;38.29
55315;BME280;41619;42.816;23.226;2022-08-05T17:40:15;95262.28;;;25.86;38.45
55315;BME280;41619;42.816;23.226;2022-08-05T17:42:42;95271.00;;;25.79;38.41
55315;BME280;41619;42.816;23.226;2022-08-05T17:45:08;95262.59;;;25.70;38.37
55315;BME280;41619;42.816;23.226;2022-08-05T17:47:34;95261.31;;;25.62;38.64
55315;BME280;41619;42.816;23.226;2022-08-05T17:50:00;95262.59;;;25.52;38.75
55315;BME280;41619;42.816;23.226;2022-08-05T17:52:25;95266.94;;;25.44;38.76
55315;BME280;41619;42.816;23.226;2022-08-05T17:54:51;95266.63;;;25.32;39.07
55315;BME280;41619;42.816;23.226;2022-08-05T17:57:17;95258.22;;;25.23;39.31